Time,TemperatureF,DewpointF,PressureIn,WindDirection,WindDirectionDegrees,WindSpeedMPH,WindSpeedGustMPH,Humidity,HourlyPrecipIn,Conditions,Clouds,dailyrainin,SoftwareType,DateUTC
2013-03-10 00:09:00,57.6,57.0,29.70,SW,225,1.1,-999.0,98,-99.99,,,0.00,Acu-Link.com,2013-03-10 06:09:00,
2013-03-10 00:25:00,57.0,56.5,29.70,West,270,1.1,-999.0,98,-99.99,,,0.00,Acu-Link.com,2013-03-10 06:25:00,
2013-03-10 00:40:00,56.3,55.7,29.73,West,270,2.7,-999.0,98,-99.99,,,0.00,Acu-Link.com,2013-03-10 06:40:00,
2013-03-10 00:55:00,56.5,55.6,29.74,WNW,292,3.1,-999.0,97,-99.99,,,0.00,Acu-Link.com,2013-03-10 06:55:00,
2013-03-10 01:10:00,56.1,54.4,29.73,NNW,337,2.2,-999.0,94,-99.99,,,0.00,Acu-Link.com,2013-03-10 07:10:00,
2013-03-10 01:25:00,56.7,50.2,29.73,West,270,3.1,-999.0,79,-99.99,,,0.00,Acu-Link.com,2013-03-10 07:25:00,
2013-03-10 01:41:00,56.1,48.7,29.73,SW,225,3.8,-999.0,76,-99.99,,,0.00,Acu-Link.com,2013-03-10 07:41:00,
2013-03-10 01:56:00,55.9,47.8,29.75,West,270,4.3,-999.0,74,-99.99,,,0.00,Acu-Link.com,2013-03-10 07:56:00,
2013-03-10 03:11:00,55.9,45.9,29.75,WSW,247,5.1,-999.0,69,-99.99,,,0.00,Acu-Link.com,2013-03-10 08:11:00,
2013-03-10 03:26:00,55.8,46.9,29.76,West,270,3.1,-999.0,72,-99.99,,,0.00,Acu-Link.com,2013-03-10 08:26:00,
2013-03-10 03:41:00,54.7,46.9,29.75,West,270,2.2,-999.0,75,-99.99,,,0.00,Acu-Link.com,2013-03-10 08:41:00,
2013-03-10 03:56:00,52.7,51.6,29.75,SW,225,2.7,-999.0,96,-99.99,,,0.01,Acu-Link.com,2013-03-10 08:56:00,
2013-03-10 04:12:00,50.9,50.4,29.76,NNE,22,2.2,-999.0,98,-99.99,,,0.01,Acu-Link.com,2013-03-10 09:12:00,
2013-03-10 04:27:00,52.7,47.4,29.74,SSW,202,1.6,-999.0,82,-99.99,,,0.02,Acu-Link.com,2013-03-10 09:27:00,
2013-03-10 04:42:00,52.0,50.0,29.75,NNE,22,0.0,-999.0,93,-99.99,,,0.02,Acu-Link.com,2013-03-10 09:42:00,
2013-03-10 04:57:00,52.3,48.6,29.72,West,270,2.2,-999.0,87,-99.99,,,0.02,Acu-Link.com,2013-03-10 09:57:00,
2013-03-10 05:12:00,52.9,48.8,29.72,NW,315,0.0,-999.0,86,-99.99,,,0.02,Acu-Link.com,2013-03-10 10:12:00,
2013-03-10 05:27:00,52.5,48.8,29.72,West,270,0.0,-999.0,87,-99.99,,,0.02,Acu-Link.com,2013-03-10 10:27:00,
2013-03-10 05:43:00,52.0,50.3,29.72,West,270,0.0,-999.0,94,-99.99,,,0.02,Acu-Link.com,2013-03-10 10:43:00,
2013-03-10 05:58:00,51.6,50.2,29.72,WSW,247,0.0,-999.0,95,-99.99,,,0.02,Acu-Link.com,2013-03-10 10:58:00,
2013-03-10 06:13:00,51.4,50.1,29.73,West,270,0.0,-999.0,95,-99.99,,,0.02,Acu-Link.com,2013-03-10 11:13:00,
2013-03-10 06:28:00,53.4,42.7,29.74,WNW,292,6.3,-999.0,67,-99.99,,,0.02,Acu-Link.com,2013-03-10 11:28:00,
2013-03-10 06:44:00,51.8,41.2,29.76,West,270,4.7,-999.0,67,-99.99,,,0.02,Acu-Link.com,2013-03-10 11:44:00,
2013-03-10 06:59:00,50.2,40.4,29.77,West,270,4.3,-999.0,69,-99.99,,,0.02,Acu-Link.com,2013-03-10 11:59:00,
2013-03-10 07:14:00,49.1,40.8,29.78,West,270,3.8,-999.0,73,-99.99,,,0.02,Acu-Link.com,2013-03-10 12:14:00,
2013-03-10 07:29:00,48.4,38.3,29.79,WSW,247,8.9,-999.0,68,-99.99,,,0.02,Acu-Link.com,2013-03-10 12:29:00,
2013-03-10 07:44:00,48.0,37.6,29.80,West,270,7.4,-999.0,67,-99.99,,,0.02,Acu-Link.com,2013-03-10 12:44:00,
2013-03-10 08:00:00,46.9,38.0,29.81,East,90,4.7,-999.0,71,-99.99,,,0.02,Acu-Link.com,2013-03-10 13:00:00,
2013-03-10 08:15:00,46.6,38.0,29.82,NW,315,5.1,-999.0,72,-99.99,,,0.02,Acu-Link.com,2013-03-10 13:15:00,
2013-03-10 08:30:00,46.6,37.3,29.84,West,270,4.7,-999.0,70,-99.99,,,0.02,Acu-Link.com,2013-03-10 13:30:00,
2013-03-10 08:45:00,46.8,37.1,29.85,NNE,22,4.3,-999.0,69,-99.99,,,0.02,Acu-Link.com,2013-03-10 13:45:00,
2013-03-10 09:00:00,47.3,37.3,29.85,NW,315,5.1,-999.0,68,-99.99,,,0.02,Acu-Link.com,2013-03-10 14:00:00,
2013-03-10 09:16:00,47.5,37.5,29.86,NW,315,5.1,-999.0,68,-99.99,,,0.02,Acu-Link.com,2013-03-10 14:16:00,
2013-03-10 09:31:00,47.8,37.0,29.87,NNW,337,3.8,-999.0,66,-99.99,,,0.02,Acu-Link.com,2013-03-10 14:31:00,
2013-03-10 09:46:00,48.4,36.8,29.87,NNW,337,7.8,-999.0,64,-99.99,,,0.02,Acu-Link.com,2013-03-10 14:46:00,
2013-03-10 10:01:00,48.7,36.7,29.89,South,180,8.3,-999.0,63,-99.99,,,0.02,Acu-Link.com,2013-03-10 15:01:00,
2013-03-10 10:16:00,49.1,36.7,29.90,ESE,112,9.8,-999.0,62,-99.99,,,0.02,Acu-Link.com,2013-03-10 15:16:00,
2013-03-10 10:32:00,49.8,37.3,29.91,North,0,9.8,-999.0,62,-99.99,,,0.02,Acu-Link.com,2013-03-10 15:32:00,
2013-03-10 10:47:00,50.2,36.8,29.92,SSW,202,5.8,-999.0,60,-99.99,,,0.02,Acu-Link.com,2013-03-10 15:47:00,
2013-03-10 11:02:00,51.3,37.9,29.93,NNW,337,3.1,-999.0,60,-99.99,,,0.02,Acu-Link.com,2013-03-10 16:02:00,
2013-03-10 11:17:00,51.8,37.5,29.93,WSW,247,5.8,-999.0,58,-99.99,,,0.02,Acu-Link.com,2013-03-10 16:17:00,
2013-03-10 11:32:00,52.3,37.6,29.94,West,270,3.1,-999.0,57,-99.99,,,0.02,Acu-Link.com,2013-03-10 16:32:00,
2013-03-10 11:48:00,52.5,37.7,29.93,WNW,292,8.3,-999.0,57,-99.99,,,0.02,Acu-Link.com,2013-03-10 16:48:00,
2013-03-10 12:03:00,52.7,37.4,29.93,NE,45,11.9,-999.0,56,-99.99,,,0.02,Acu-Link.com,2013-03-10 17:03:00,
2013-03-10 12:18:00,53.4,37.7,29.93,NE,45,6.3,-999.0,55,-99.99,,,0.02,Acu-Link.com,2013-03-10 17:18:00,
2013-03-10 12:33:00,55.6,39.7,29.93,SW,225,5.1,-999.0,55,-99.99,,,0.02,Acu-Link.com,2013-03-10 17:33:00,
2013-03-10 12:49:00,54.7,38.4,29.93,NNW,337,8.3,-999.0,54,-99.99,,,0.02,Acu-Link.com,2013-03-10 17:49:00,
2013-03-10 13:19:00,55.2,38.4,29.94,West,270,6.3,-999.0,53,-99.99,,,0.02,Acu-Link.com,2013-03-10 18:19:00,
2013-03-10 13:34:00,55.8,38.9,29.93,West,270,11.4,-999.0,53,-99.99,,,0.02,Acu-Link.com,2013-03-10 18:34:00,
2013-03-10 13:49:00,55.9,38.6,29.92,North,0,3.8,-999.0,52,-99.99,,,0.02,Acu-Link.com,2013-03-10 18:49:00,
2013-03-10 14:05:00,56.5,37.0,29.92,WSW,247,8.3,-999.0,48,-99.99,,,0.02,Acu-Link.com,2013-03-10 19:05:00,
2013-03-10 14:20:00,57.2,37.7,29.91,NE,45,7.4,-999.0,48,-99.99,,,0.02,Acu-Link.com,2013-03-10 19:20:00,
2013-03-10 14:35:00,57.0,37.0,29.91,NE,45,9.8,-999.0,47,-99.99,,,0.02,Acu-Link.com,2013-03-10 19:35:00,
2013-03-10 14:50:00,58.5,37.8,29.91,SSW,202,4.7,-999.0,46,-99.99,,,0.02,Acu-Link.com,2013-03-10 19:50:00,
2013-03-10 15:05:00,58.1,37.4,29.91,ENE,67,6.7,-999.0,46,-99.99,,,0.02,Acu-Link.com,2013-03-10 20:05:00,
2013-03-10 15:21:00,58.3,37.6,29.91,NE,45,8.9,-999.0,46,-99.99,,,0.02,Acu-Link.com,2013-03-10 20:21:00,
2013-03-10 15:36:00,58.8,38.1,29.91,NNE,22,9.8,-999.0,46,-99.99,,,0.02,Acu-Link.com,2013-03-10 20:36:00,
2013-03-10 15:51:00,59.0,37.7,29.90,NNE,22,10.3,-999.0,45,-99.99,,,0.02,Acu-Link.com,2013-03-10 20:51:00,
2013-03-10 16:06:00,57.2,34.9,29.90,ENE,67,7.8,-999.0,43,-99.99,,,0.02,Acu-Link.com,2013-03-10 21:06:00,
2013-03-10 16:21:00,57.7,36.0,29.90,NNE,22,7.8,-999.0,44,-99.99,,,0.02,Acu-Link.com,2013-03-10 21:21:00,
2013-03-10 16:37:00,56.7,34.4,29.90,North,0,8.9,-999.0,43,-99.99,,,0.02,Acu-Link.com,2013-03-10 21:37:00,
2013-03-10 16:52:00,57.0,35.3,29.90,East,90,8.3,-999.0,44,-99.99,,,0.02,Acu-Link.com,2013-03-10 21:52:00,
2013-03-10 17:22:00,57.4,35.1,29.90,West,270,4.7,-999.0,43,-99.99,,,0.02,Acu-Link.com,2013-03-10 22:22:00,
2013-03-10 17:38:00,56.5,34.8,29.91,South,180,3.8,-999.0,44,-99.99,,,0.02,Acu-Link.com,2013-03-10 22:38:00,
2013-03-10 17:53:00,56.3,34.7,29.91,WNW,292,6.7,-999.0,44,-99.99,,,0.02,Acu-Link.com,2013-03-10 22:53:00,
2013-03-10 18:08:00,56.8,34.0,29.91,WSW,247,7.4,-999.0,42,-99.99,,,0.02,Acu-Link.com,2013-03-10 23:08:00,
2013-03-10 18:23:00,55.8,34.2,29.92,West,270,7.4,-999.0,44,-99.99,,,0.02,Acu-Link.com,2013-03-10 23:23:00,
2013-03-10 18:38:00,55.6,33.4,29.93,WNW,292,4.7,-999.0,43,-99.99,,,0.02,Acu-Link.com,2013-03-10 23:38:00,
2013-03-10 18:54:00,54.9,33.4,29.93,West,270,2.7,-999.0,44,-99.99,,,0.02,Acu-Link.com,2013-03-10 23:54:00,
2013-03-10 19:09:00,54.0,33.7,29.93,North,0,2.2,-999.0,46,-99.99,,,0.02,Acu-Link.com,2013-03-11 00:09:00,
2013-03-10 19:24:00,52.9,33.2,29.94,NNW,337,4.3,-999.0,47,-99.99,,,0.02,Acu-Link.com,2013-03-11 00:24:00,
2013-03-10 19:39:00,51.6,31.5,29.96,NNW,337,2.2,-999.0,46,-99.99,,,0.02,Acu-Link.com,2013-03-11 00:39:00,
2013-03-10 19:54:00,50.4,31.4,29.96,North,0,1.6,-999.0,48,-99.99,,,0.02,Acu-Link.com,2013-03-11 00:54:00,
2013-03-10 20:09:00,49.1,31.8,29.97,East,90,0.0,-999.0,51,-99.99,,,0.02,Acu-Link.com,2013-03-11 01:09:00,
2013-03-10 20:25:00,47.7,31.4,29.98,North,0,0.0,-999.0,53,-99.99,,,0.02,Acu-Link.com,2013-03-11 01:25:00,
2013-03-10 20:40:00,46.2,32.7,29.99,NW,315,0.0,-999.0,59,-99.99,,,0.02,Acu-Link.com,2013-03-11 01:40:00,
2013-03-10 20:55:00,46.4,32.0,30.00,North,0,0.0,-999.0,57,-99.99,,,0.02,Acu-Link.com,2013-03-11 01:55:00,
2013-03-10 21:10:00,45.1,31.3,30.00,NNW,337,0.0,-999.0,58,-99.99,,,0.02,Acu-Link.com,2013-03-11 02:10:00,
2013-03-10 21:26:00,44.1,31.5,30.01,West,270,0.0,-999.0,61,-99.99,,,0.02,Acu-Link.com,2013-03-11 02:26:00,
2013-03-10 21:41:00,43.9,30.9,30.02,NW,315,0.0,-999.0,60,-99.99,,,0.02,Acu-Link.com,2013-03-11 02:41:00,
2013-03-10 22:11:00,43.7,30.3,30.02,WNW,292,0.0,-999.0,59,-99.99,,,0.02,Acu-Link.com,2013-03-11 03:11:00,
2013-03-10 22:26:00,43.5,29.3,30.02,North,0,1.6,-999.0,57,-99.99,,,0.02,Acu-Link.com,2013-03-11 03:26:00,
2013-03-10 22:42:00,43.7,28.6,30.02,NNW,337,1.1,-999.0,55,-99.99,,,0.02,Acu-Link.com,2013-03-11 03:42:00,
2013-03-10 22:57:00,43.0,28.8,30.01,NNE,22,1.1,-999.0,57,-99.99,,,0.02,Acu-Link.com,2013-03-11 03:57:00,
2013-03-10 23:12:00,42.6,28.5,30.02,NW,315,3.8,-999.0,57,-99.99,,,0.02,Acu-Link.com,2013-03-11 04:12:00,
2013-03-10 23:27:00,42.8,28.2,30.01,NE,45,1.6,-999.0,56,-99.99,,,0.02,Acu-Link.com,2013-03-11 04:27:00,
2013-03-10 23:42:00,42.1,27.5,30.02,NNW,337,1.6,-999.0,56,-99.99,,,0.02,Acu-Link.com,2013-03-11 04:42:00,
2013-03-10 23:58:00,41.4,27.3,30.02,WNW,292,0.0,-999.0,57,-99.99,,,0.02,Acu-Link.com,2013-03-11 04:58:00,